createdAt,value
2022-08-08T00:01:07.961Z,2.00
2022-08-08T00:03:47.546Z,1.58
2022-08-08T00:06:28.654Z,1.67
2022-08-08T00:09:09.535Z,2.00
2022-08-08T00:11:46.459Z,1.60
2022-08-08T00:14:59.331Z,1.90
2022-08-08T00:18:01.665Z,1.73
2022-08-08T00:20:37.402Z,1.92
2022-08-08T00:23:08.541Z,1.88
2022-08-08T00:25:44.932Z,2.03
2022-08-08T00:28:35.530Z,2.00
2022-08-08T00:32:16.273Z,2.03
2022-08-08T00:34:27.510Z,1.98
2022-08-08T00:37:03.542Z,2.10
2022-08-08T00:41:07.362Z,1.90
2022-08-08T00:43:06.047Z,1.98
2022-08-08T00:46:02.123Z,2.25
2022-08-08T00:48:59.290Z,2.10
2022-08-08T00:52:04.379Z,2.40
2022-08-08T00:55:08.283Z,2.10
2022-08-08T00:58:12.650Z,2.28
2022-08-08T01:00:51.353Z,2.30
2022-08-08T01:04:10.929Z,1.98
2022-08-08T01:07:10.695Z,2.13
2022-08-08T01:10:32.471Z,2.05
2022-08-08T01:13:52.586Z,2.13
2022-08-08T01:17:01.996Z,2.22
2022-08-08T01:20:14.991Z,1.63
2022-08-08T01:24:05.383Z,2.45
2022-08-08T01:26:31.798Z,2.13
2022-08-08T01:29:35.507Z,2.40
2022-08-08T01:33:23.945Z,2.50
2022-08-08T01:36:31.956Z,2.10
2022-08-08T01:39:23.891Z,2.95
2022-08-08T01:42:08.166Z,1.95
2022-08-08T01:45:00.469Z,2.28
2022-08-08T01:48:14.873Z,1.92
2022-08-08T01:50:59.932Z,2.30
2022-08-08T01:55:26.314Z,2.33
2022-08-08T01:56:57.945Z,2.22
2022-08-08T02:00:13.094Z,2.03
2022-08-08T02:03:55.601Z,2.28
2022-08-08T02:06:32.469Z,2.50
2022-08-08T02:09:17.664Z,2.30
2022-08-08T02:12:00.224Z,2.50
2022-08-08T02:14:55.173Z,2.58
2022-08-08T02:17:36.555Z,2.13
2022-08-08T02:21:02.498Z,2.55
2022-08-08T02:23:16.052Z,2.15
2022-08-08T02:25:53.122Z,2.03
2022-08-08T02:28:39.051Z,2.58
2022-08-08T02:31:54.111Z,2.28
2022-08-08T02:34:33.088Z,2.10
2022-08-08T02:37:52.013Z,2.83
2022-08-08T02:40:08.629Z,2.38
2022-08-08T02:44:38.280Z,2.22
2022-08-08T02:46:44.243Z,2.30
2022-08-08T02:49:52.962Z,2.45
2022-08-08T02:52:43.437Z,2.28
2022-08-08T02:56:03.675Z,2.50
2022-08-08T02:59:37.198Z,2.83
2022-08-08T03:03:00.676Z,2.45
2022-08-08T03:06:08.112Z,2.53
2022-08-08T03:09:23.082Z,2.53
2022-08-08T03:13:01.776Z,2.45
2022-08-08T03:15:59.350Z,2.70
2022-08-08T03:18:39.274Z,2.50
2022-08-08T03:21:09.704Z,2.72
2022-08-08T03:23:59.757Z,2.70
2022-08-08T03:26:33.574Z,2.50
2022-08-08T03:29:18.753Z,2.63
2022-08-08T03:32:08.416Z,2.53
2022-08-08T03:34:40.452Z,2.75
2022-08-08T03:37:59.562Z,2.70
2022-08-08T03:40:03.744Z,2.63
2022-08-08T03:42:34.150Z,2.50
2022-08-08T03:46:07.443Z,2.50
2022-08-08T03:47:58.951Z,2.58
2022-08-08T03:50:28.211Z,2.97
2022-08-08T03:52:57.329Z,2.78
2022-08-08T03:55:56.424Z,2.58
2022-08-08T03:58:36.418Z,2.60
2022-08-08T04:01:24.385Z,2.70
2022-08-08T04:03:58.834Z,2.95
2022-08-08T04:06:34.780Z,2.90
2022-08-08T04:09:11.387Z,2.77
2022-08-08T04:11:57.911Z,2.67
2022-08-08T04:14:34.437Z,3.00
2022-08-08T04:17:04.507Z,2.78
2022-08-08T04:19:36.934Z,2.85
2022-08-08T04:22:05.566Z,3.22
2022-08-08T04:24:40.218Z,2.85
2022-08-08T04:27:42.561Z,2.63
2022-08-08T04:30:17.282Z,2.83
2022-08-08T04:32:50.416Z,3.17
2022-08-08T04:35:22.909Z,3.03
2022-08-08T04:37:52.318Z,3.70
2022-08-08T04:40:25.184Z,2.70
2022-08-08T04:43:01.639Z,3.15
2022-08-08T04:45:40.484Z,3.22
2022-08-08T04:48:09.058Z,3.63
2022-08-08T04:50:40.273Z,3.70
2022-08-08T04:54:27.047Z,4.05
2022-08-08T04:56:02.837Z,4.03
2022-08-08T04:58:35.521Z,3.50
2022-08-08T05:01:09.075Z,3.72
2022-08-08T05:04:07.956Z,3.28
2022-08-08T05:06:32.719Z,3.50
2022-08-08T05:09:05.822Z,3.22
2022-08-08T05:11:39.954Z,3.15
2022-08-08T05:14:14.780Z,3.25
2022-08-08T05:17:00.647Z,3.10
2022-08-08T05:20:10.602Z,3.72
2022-08-08T05:22:22.074Z,3.75
2022-08-08T05:24:51.876Z,3.50
2022-08-08T05:27:22.784Z,4.15
2022-08-08T05:29:56.434Z,3.47
2022-08-08T05:32:33.055Z,3.35
2022-08-08T05:35:05.682Z,3.55
2022-08-08T05:37:51.890Z,3.83
2022-08-08T05:40:28.572Z,3.75
2022-08-08T05:43:38.067Z,3.42
2022-08-08T05:46:03.191Z,3.55
2022-08-08T05:48:34.600Z,3.35
2022-08-08T05:51:14.637Z,3.45
2022-08-08T05:54:26.205Z,3.28
2022-08-08T05:56:42.449Z,3.42
2022-08-08T05:59:52.379Z,3.30
2022-08-08T06:02:34.073Z,3.80
2022-08-08T06:05:06.901Z,3.63
2022-08-08T06:08:02.741Z,3.85
2022-08-08T06:10:41.700Z,3.60
2022-08-08T06:13:12.494Z,3.40
2022-08-08T06:15:50.501Z,3.35
2022-08-08T06:18:31.462Z,3.28
2022-08-08T06:21:27.846Z,3.42
2022-08-08T06:24:02.164Z,3.38
2022-08-08T06:26:43.879Z,3.58
2022-08-08T06:29:48.545Z,3.50
2022-08-08T06:32:17.181Z,3.30
2022-08-08T06:35:12.346Z,3.40
2022-08-08T06:37:55.999Z,3.53
2022-08-08T06:40:37.006Z,3.60
2022-08-08T06:43:13.329Z,3.75
2022-08-08T06:45:54.094Z,3.67
2022-08-08T06:48:27.388Z,3.33
2022-08-08T06:51:03.270Z,3.75
2022-08-08T06:53:39.945Z,3.80
2022-08-08T06:56:18.723Z,3.13
2022-08-08T06:58:51.704Z,3.67
2022-08-08T07:02:27.502Z,4.05
2022-08-08T07:04:49.750Z,4.70
2022-08-08T07:07:32.920Z,4.30
2022-08-08T07:10:08.270Z,4.45
2022-08-08T07:12:47.570Z,3.75
2022-08-08T07:15:41.143Z,4.20
2022-08-08T07:18:36.217Z,3.63
2022-08-08T07:21:19.272Z,3.47
2022-08-08T07:24:03.399Z,3.80
2022-08-08T07:26:40.787Z,3.65
2022-08-08T07:29:11.653Z,3.80
2022-08-08T07:31:59.815Z,3.38
2022-08-08T07:34:32.412Z,3.35
2022-08-08T07:37:11.527Z,3.97
2022-08-08T07:39:55.883Z,3.50
2022-08-08T07:42:33.291Z,3.88
2022-08-08T07:45:04.425Z,3.95
2022-08-08T07:47:38.836Z,3.92
2022-08-08T07:50:10.686Z,3.65
2022-08-08T07:52:43.720Z,4.40
2022-08-08T07:55:20.209Z,4.03
2022-08-08T07:58:10.143Z,3.30
2022-08-08T08:00:45.419Z,3.90
2022-08-08T08:03:28.317Z,3.67
2022-08-08T08:06:00.555Z,3.70
2022-08-08T08:08:50.142Z,3.70
2022-08-08T08:11:23.388Z,3.53
2022-08-08T08:14:08.437Z,4.15
2022-08-08T08:16:48.715Z,3.50
2022-08-08T08:19:22.710Z,3.70
2022-08-08T08:21:58.385Z,3.40
2022-08-08T08:24:46.709Z,3.78
2022-08-08T08:27:17.589Z,3.63
2022-08-08T08:29:50.992Z,2.67
2022-08-08T08:32:31.481Z,3.67
2022-08-08T08:35:05.345Z,4.00
2022-08-08T08:37:53.059Z,3.38
2022-08-08T08:40:25.928Z,3.40
2022-08-08T08:42:57.270Z,2.75
2022-08-08T08:45:26.473Z,3.58
2022-08-08T08:48:01.106Z,3.13
2022-08-08T08:50:36.201Z,3.20
2022-08-08T08:53:27.432Z,3.10
2022-08-08T08:56:12.276Z,2.75
2022-08-08T08:58:46.994Z,3.13
2022-08-08T09:01:31.021Z,3.53
2022-08-08T09:04:04.096Z,3.15
2022-08-08T09:06:44.769Z,2.60
2022-08-08T09:09:35.372Z,3.20
2022-08-08T09:12:20.038Z,2.70
2022-08-08T09:14:52.635Z,2.63
2022-08-08T09:17:40.820Z,2.67
2022-08-08T09:21:58.547Z,2.58
2022-08-08T09:23:02.857Z,2.13
2022-08-08T09:25:35.515Z,2.38
2022-08-08T09:28:35.731Z,2.17
2022-08-08T09:31:13.272Z,1.95
2022-08-08T09:34:14.604Z,1.83
2022-08-08T09:36:35.993Z,1.80
2022-08-08T09:39:15.516Z,2.30
2022-08-08T09:42:19.862Z,1.92
2022-08-08T09:45:03.656Z,2.05
2022-08-08T09:48:09.796Z,2.10
2022-08-08T09:50:28.281Z,1.80
2022-08-08T09:53:05.551Z,2.08
2022-08-08T09:56:05.389Z,2.35
2022-08-08T09:58:41.396Z,1.63
2022-08-08T10:01:15.497Z,1.70
2022-08-08T10:04:04.916Z,1.85
2022-08-08T10:06:35.830Z,2.22
2022-08-08T10:09:08.360Z,2.38
2022-08-08T10:12:26.574Z,1.98
2022-08-08T10:14:38.708Z,1.67
2022-08-08T10:17:38.528Z,1.83
2022-08-08T10:20:00.921Z,2.08
2022-08-08T10:22:30.501Z,1.95
2022-08-08T10:25:05.369Z,1.80
2022-08-08T10:27:43.292Z,1.80
2022-08-08T10:30:16.824Z,1.75
2022-08-08T10:33:01.491Z,1.60
2022-08-08T10:36:08.802Z,1.50
2022-08-08T10:38:21.387Z,1.52
2022-08-08T10:40:53.859Z,1.50
2022-08-08T10:43:22.991Z,1.70
2022-08-08T10:45:57.295Z,1.77
2022-08-08T10:48:38.796Z,1.92
2022-08-08T10:51:24.469Z,2.08
2022-08-08T10:53:58.087Z,1.90
2022-08-08T10:56:32.282Z,1.77
2022-08-08T10:59:07.768Z,1.40
2022-08-08T11:01:38.364Z,1.70
2022-08-08T11:04:10.839Z,1.98
2022-08-08T11:06:41.835Z,1.90
2022-08-08T11:09:21.641Z,2.33
2022-08-08T11:12:05.960Z,2.03
2022-08-08T11:14:52.697Z,1.98
2022-08-08T11:17:59.659Z,2.08
2022-08-08T11:20:13.934Z,1.50
2022-08-08T11:22:43.529Z,2.47
2022-08-08T11:25:14.058Z,2.13
2022-08-08T11:27:44.488Z,2.60
2022-08-08T11:30:24.555Z,2.30
2022-08-08T11:32:57.087Z,1.90
2022-08-08T11:35:38.658Z,2.50
2022-08-08T11:38:36.329Z,2.65
2022-08-08T11:41:02.975Z,2.45
2022-08-08T11:43:39.538Z,2.38
2022-08-08T11:46:17.862Z,2.60
2022-08-08T11:48:47.777Z,2.35
2022-08-08T11:51:38.564Z,2.65
2022-08-08T11:54:26.929Z,2.95
2022-08-08T11:56:57.779Z,3.25
2022-08-08T11:59:58.492Z,2.72
2022-08-08T12:02:39.921Z,2.90
2022-08-08T12:05:12.193Z,2.90
2022-08-08T12:07:49.682Z,3.10
2022-08-08T12:10:23.356Z,2.83
2022-08-08T12:13:01.393Z,2.60
2022-08-08T12:15:42.861Z,2.55
2022-08-08T12:18:20.590Z,2.70
2022-08-08T12:20:50.555Z,3.20
2022-08-08T12:23:42.932Z,2.60
2022-08-08T12:26:28.181Z,2.42
2022-08-08T12:29:19.564Z,2.67
2022-08-08T12:32:02.627Z,2.72
2022-08-08T12:34:36.768Z,2.67
2022-08-08T12:37:08.437Z,2.60
2022-08-08T12:39:58.177Z,2.50
2022-08-08T12:42:33.008Z,2.72
2022-08-08T12:45:54.004Z,2.42
2022-08-08T12:48:10.243Z,2.92
2022-08-08T12:50:51.065Z,2.50
2022-08-08T12:53:30.188Z,2.40
2022-08-08T12:56:18.082Z,2.38
2022-08-08T12:58:55.404Z,2.50
2022-08-08T13:01:36.869Z,2.80
2022-08-08T13:04:18.558Z,2.50
2022-08-08T13:07:00.924Z,2.70
2022-08-08T13:09:43.221Z,2.35
2022-08-08T13:12:29.606Z,2.53
2022-08-08T13:15:03.323Z,2.45
2022-08-08T13:18:07.873Z,2.28
2022-08-08T13:20:27.481Z,2.30
2022-08-08T13:23:35.743Z,2.05
2022-08-08T13:25:50.255Z,2.25
2022-08-08T13:28:32.193Z,2.10
2022-08-08T13:31:03.965Z,2.30
2022-08-08T13:33:42.027Z,2.08
2022-08-08T13:36:11.743Z,2.38
2022-08-08T13:38:40.118Z,2.10
2022-08-08T13:41:15.890Z,2.15
2022-08-08T13:43:46.963Z,2.55
2022-08-08T13:46:26.476Z,3.00
2022-08-08T13:49:12.024Z,2.33
2022-08-08T13:51:57.048Z,2.97
2022-08-08T13:54:29.383Z,2.25
2022-08-08T13:57:08.535Z,2.40
2022-08-08T13:59:41.001Z,2.50
2022-08-08T14:02:20.659Z,2.35
2022-08-08T14:05:04.750Z,2.20
2022-08-08T14:07:39.639Z,2.10
2022-08-08T14:10:17.375Z,2.30
2022-08-08T14:12:46.726Z,2.05
2022-08-08T14:15:31.527Z,2.03
2022-08-08T14:18:36.139Z,2.38
2022-08-08T14:21:12.639Z,2.45
2022-08-08T14:24:07.069Z,2.25
2022-08-08T14:26:33.212Z,2.40
2022-08-08T14:29:06.096Z,2.10
2022-08-08T14:32:10.500Z,2.22
2022-08-08T14:34:37.173Z,2.50
2022-08-08T14:37:08.388Z,2.00
2022-08-08T14:39:48.002Z,2.08
2022-08-08T14:42:17.472Z,2.53
2022-08-08T14:44:55.248Z,2.35
2022-08-08T14:47:23.407Z,2.47
2022-08-08T14:50:10.812Z,2.40
2022-08-08T14:52:46.420Z,2.40
2022-08-08T14:55:16.370Z,2.53
2022-08-08T14:58:06.008Z,2.30
2022-08-08T15:00:38.111Z,2.47
2022-08-08T15:03:14.989Z,2.67
2022-08-08T15:05:52.271Z,3.00
2022-08-08T15:08:34.674Z,2.50
2022-08-08T15:11:09.403Z,2.95
2022-08-08T15:13:57.960Z,2.40
2022-08-08T15:16:28.381Z,2.95
2022-08-08T15:18:56.189Z,2.67
2022-08-08T15:21:27.759Z,2.40
2022-08-08T15:23:58.238Z,2.58
2022-08-08T15:26:28.959Z,2.58
2022-08-08T15:28:57.764Z,2.75
2022-08-08T15:32:03.954Z,2.40
2022-08-08T15:34:18.698Z,2.53
2022-08-08T15:37:03.103Z,2.90
2022-08-08T15:39:37.895Z,2.88
2022-08-08T15:42:10.524Z,2.92
2022-08-08T15:44:42.483Z,2.70
2022-08-08T15:47:15.604Z,2.85
2022-08-08T15:49:48.171Z,2.50
2022-08-08T15:52:21.500Z,2.90
2022-08-08T15:54:52.474Z,2.70
2022-08-08T15:57:21.475Z,2.80
2022-08-08T16:00:05.099Z,2.78
2022-08-08T16:02:50.515Z,3.03
2022-08-08T16:05:21.221Z,2.88
2022-08-08T16:07:52.297Z,2.50
2022-08-08T16:13:11.640Z,3.05
2022-08-08T16:13:30.651Z,2.70
2022-08-08T16:16:09.611Z,2.50
2022-08-08T16:18:56.166Z,2.15
2022-08-08T16:21:29.374Z,2.47
2022-08-08T16:24:00.449Z,2.80
2022-08-08T16:26:33.727Z,2.78
2022-08-08T16:29:03.313Z,2.60
2022-08-08T16:31:35.477Z,2.55
2022-08-08T16:34:05.811Z,2.67
2022-08-08T16:36:34.382Z,2.75
2022-08-08T16:39:16.944Z,2.70
2022-08-08T16:41:53.174Z,2.53
2022-08-08T16:44:28.040Z,2.88
2022-08-08T16:47:16.704Z,2.60
2022-08-08T16:49:44.673Z,2.70
2022-08-08T16:55:03.982Z,2.20
2022-08-08T16:55:33.795Z,2.70
2022-08-08T16:58:14.696Z,2.55
2022-08-08T17:00:49.082Z,2.50
2022-08-08T17:03:24.711Z,2.35
2022-08-08T17:06:36.848Z,2.83
2022-08-08T17:08:56.332Z,2.85
2022-08-08T17:11:28.102Z,2.80
2022-08-08T17:14:01.126Z,2.67
2022-08-08T17:16:29.806Z,2.50
2022-08-08T17:19:00.491Z,2.33
2022-08-08T17:21:37.489Z,2.97
2022-08-08T17:24:19.456Z,2.67
2022-08-08T17:26:58.024Z,2.28
2022-08-08T17:29:26.839Z,2.78
2022-08-08T17:31:54.739Z,2.90
2022-08-08T17:34:49.739Z,2.95
2022-08-08T17:37:13.873Z,2.70
2022-08-08T17:40:03.850Z,2.67
2022-08-08T17:42:31.336Z,2.40
2022-08-08T17:44:59.357Z,2.72
2022-08-08T17:47:40.587Z,2.40
2022-08-08T17:50:10.298Z,2.65
2022-08-08T17:52:43.307Z,3.05
2022-08-08T17:56:06.022Z,2.38
2022-08-08T17:58:01.848Z,2.38
2022-08-08T18:00:31.267Z,2.53
2022-08-08T18:03:08.595Z,2.60
2022-08-08T18:05:44.227Z,2.40
2022-08-08T18:08:24.657Z,2.60
2022-08-08T18:11:07.147Z,2.58
2022-08-08T18:13:41.663Z,2.67
2022-08-08T18:16:11.078Z,2.80
2022-08-08T18:18:45.236Z,2.35
2022-08-08T18:21:35.466Z,2.38
2022-08-08T18:24:17.237Z,2.40
2022-08-08T18:26:54.269Z,2.90
2022-08-08T18:29:30.080Z,2.60
2022-08-08T18:32:03.360Z,2.60
2022-08-08T18:34:33.227Z,2.67
2022-08-08T18:37:04.621Z,2.47
2022-08-08T18:39:36.429Z,2.80
2022-08-08T18:42:13.954Z,2.70
2022-08-08T18:44:55.013Z,2.78
2022-08-08T18:47:24.270Z,2.88
2022-08-08T18:49:57.824Z,2.67
2022-08-08T18:52:28.152Z,2.40
2022-08-08T18:54:58.119Z,2.33
2022-08-08T18:57:31.878Z,2.35
2022-08-08T19:00:16.575Z,2.40
2022-08-08T19:02:56.455Z,2.45
2022-08-08T19:05:31.749Z,2.75
2022-08-08T19:08:04.186Z,2.70
2022-08-08T19:10:32.155Z,2.35
2022-08-08T19:13:00.102Z,2.40
2022-08-08T19:15:34.184Z,2.72
2022-08-08T19:18:33.276Z,1.98
2022-08-08T19:20:50.857Z,2.53
2022-08-08T19:23:21.586Z,2.30
2022-08-08T19:26:20.482Z,2.47
2022-08-08T19:28:41.402Z,2.33
2022-08-08T19:31:13.172Z,2.70
2022-08-08T19:34:04.299Z,2.63
2022-08-08T19:36:33.252Z,2.20
2022-08-08T19:39:01.366Z,2.38
2022-08-08T19:41:29.916Z,2.10
2022-08-08T19:44:03.726Z,2.42
2022-08-08T19:46:34.963Z,2.30
2022-08-08T19:49:03.241Z,2.53
2022-08-08T19:51:34.278Z,2.55
2022-08-08T19:54:03.031Z,2.78
2022-08-08T19:56:40.622Z,2.28
2022-08-08T19:59:10.108Z,2.20
2022-08-08T20:02:02.568Z,2.20
2022-08-08T20:04:29.691Z,2.28
2022-08-08T20:06:57.677Z,2.40
2022-08-08T20:09:29.879Z,2.30
2022-08-08T20:12:00.328Z,2.17
2022-08-08T20:14:34.871Z,2.50
2022-08-08T20:17:05.968Z,2.20
2022-08-08T20:19:42.285Z,2.30
2022-08-08T20:22:13.189Z,2.17
2022-08-08T20:24:49.472Z,2.42
2022-08-08T20:27:20.444Z,2.00
2022-08-08T20:30:00.441Z,2.17
2022-08-08T20:32:31.801Z,2.58
2022-08-08T20:35:02.265Z,2.05
2022-08-08T20:37:37.343Z,2.40
2022-08-08T20:40:33.718Z,1.98
2022-08-08T20:43:16.360Z,2.20
2022-08-08T20:45:57.801Z,2.13
2022-08-08T20:48:32.431Z,2.40
2022-08-08T20:51:05.546Z,2.03
2022-08-08T20:53:59.862Z,2.45
2022-08-08T20:56:35.541Z,2.35
2022-08-08T20:59:08.893Z,2.28
2022-08-08T21:02:05.391Z,2.40
2022-08-08T21:04:27.699Z,2.13
2022-08-08T21:06:55.917Z,2.25
2022-08-08T21:09:24.269Z,2.58
2022-08-08T21:12:03.290Z,2.72
2022-08-08T21:14:33.594Z,2.20
2022-08-08T21:17:03.099Z,2.60
2022-08-08T21:19:45.854Z,2.28
2022-08-08T21:22:16.009Z,2.80
2022-08-08T21:24:52.614Z,2.50
2022-08-08T21:28:06.516Z,2.55
2022-08-08T21:30:18.953Z,2.83
2022-08-08T21:32:51.766Z,3.30
2022-08-08T21:36:14.882Z,3.78
2022-08-08T21:38:16.179Z,3.22
2022-08-08T21:40:56.491Z,3.40
2022-08-08T21:43:33.882Z,3.63
2022-08-08T21:48:07.513Z,2.60
2022-08-08T21:48:52.022Z,2.25
2022-08-08T21:54:35.828Z,1.95
2022-08-08T21:54:36.225Z,2.72
2022-08-08T21:56:59.541Z,2.45
2022-08-08T21:59:44.244Z,2.40
2022-08-08T22:02:19.598Z,2.90
2022-08-08T22:04:51.034Z,2.40
2022-08-08T22:07:26.191Z,2.55
2022-08-08T22:10:09.880Z,2.70
2022-08-08T22:12:46.933Z,2.35
2022-08-08T22:15:14.907Z,2.78
2022-08-08T22:17:45.640Z,2.35
2022-08-08T22:20:23.458Z,2.72
2022-08-08T22:22:53.570Z,2.53
2022-08-08T22:25:25.290Z,2.60
2022-08-08T22:28:03.718Z,2.60
2022-08-08T22:30:42.574Z,2.60
2022-08-08T22:34:11.007Z,3.13
2022-08-08T22:36:04.198Z,2.83
2022-08-08T22:38:48.305Z,2.35
2022-08-08T22:41:21.182Z,2.72
2022-08-08T22:44:02.512Z,2.92
2022-08-08T22:46:34.353Z,2.70
2022-08-08T22:49:06.698Z,2.50
2022-08-08T22:51:42.743Z,2.70
2022-08-08T22:54:32.197Z,2.40
2022-08-08T22:57:08.691Z,2.30
2022-08-08T22:59:48.411Z,2.90
2022-08-08T23:02:29.528Z,2.80
2022-08-08T23:05:02.215Z,2.35
2022-08-08T23:07:51.407Z,2.40
2022-08-08T23:10:25.412Z,2.33
2022-08-08T23:12:55.218Z,2.30
2022-08-08T23:16:39.286Z,2.83
2022-08-08T23:18:12.456Z,2.42
2022-08-08T23:20:40.998Z,2.65
2022-08-08T23:23:11.532Z,2.75
2022-08-08T23:25:47.907Z,2.67
2022-08-08T23:28:18.889Z,2.78
2022-08-08T23:30:47.347Z,2.75
2022-08-08T23:33:20.930Z,2.80
2022-08-08T23:36:07.776Z,2.33
2022-08-08T23:38:41.732Z,2.60
2022-08-08T23:41:24.511Z,2.60
2022-08-08T23:43:56.769Z,2.50
2022-08-08T23:49:07.122Z,2.55
2022-08-08T23:49:14.232Z,2.33
2022-08-08T23:52:06.147Z,2.72
2022-08-08T23:54:41.695Z,3.00
2022-08-08T23:57:26.907Z,2.72
